ORMM/BSR METAR and TAF weather

Enter ICAO airport designator
Station Type Date Time Source
ORMM METAR 2019/07/18 11:00 UTC NOAA

ORMM 181100Z 32030KT 5000 BLDU NSC 47/06 Q0996 NOSIG


Station Type Date Time Source
ORMM Decoded METAR 2019/07/18 11:00 UTC NOAA

Station name not available
Jul 18, 2019 - 07:00 AM EDT / 2019.07.18 1100 UTC
Wind: from the NW (320 degrees) at 35 MPH (30 KT):0
Visibility: 3 mile(s):0
Weather: blowing widespread dust
Temperature: 116 F (47 C)
Dew Point: 42 F (6 C)
Relative Humidity: 8%
Pressure (altimeter): 29.41 in. Hg (0996 hPa)
ob: ORMM 181100Z 32030KT 5000 BLDU NSC 47/06 Q0996 NOSIG
cycle: 11

Station Type Date Time Source
ORMM TAF 2019/07/18 06:59 UTC NOAA

TAF ORMM 180400Z 1806/1906 31014KT CAVOK
TEMPO 1807/1821 G30KT 6000 NSC PROB40
TEMPO 1816/1821 G40KT 5000 BLDU NSC

Example: see airport list